Terminal Aerodrome Forecast
Issued by NWS

Home | Current Version | Previous Version | Text Only | Print | Product List | Glossary Off
Versions: 1 2 3 4 5 6 7 8 9 10 11 12 13 14 15 16 17 18 19 20

000
FTUS43 KGRB 011900 AAA
TAFATW
TAF AMD
KATW 011904Z 0119/0218 23010G16KT P6SM BKN020 OVC040
     FM020000 27006KT P6SM SCT030
     FM020300 28004KT P6SM SCT250
     FM021600 26008KT P6SM SCT040 BKN090=

USA.gov is the U.S. government's official web portal to all federal, state and local government web resources and services.